KPRC

Ernest A Love Field Airport

Prescott, Arizona, USA
METAR KPRC 151553Z 00000KT 10SM CLR 06/M09 A3025 RMK AO2 SLP227 T00561089
Observed Flight Rules
Dec-15 @ 15:53 UTC (40 minutes ago) Visual Flight Rules
Visibility Clouds
10 miles
  • Clear skies
Temperatures Readings
Current 6°C / 43°F
Dewpoint -9°C / 16°F
Humidity 34%
Altimeter 30.25" Hg
Pressure 1022.7 hPa
Elevation 1524
METAR KPRC 151553Z 00000KT 10SM CLR 06/M09 A3025 RMK AO2 SLP227 T00561089
Observed Flight Rules
Dec-15 @ 15:53 UTC
(40 minutes ago)
VFR
Clouds
  • Clear skies
Temperature Dewpoint
6°C / 43°F -9°C / 16°F
Humidity Altimeter Pressure
34% 30.25" Hg 1022.7 hPa